createdAt,value
2023-04-12T00:00:25.231Z,6.49
2023-04-12T00:01:25.205Z,6.48
2023-04-12T00:02:25.333Z,6.49
2023-04-12T00:03:25.465Z,6.46
2023-04-12T00:04:25.400Z,6.45
2023-04-12T00:05:25.471Z,6.44
2023-04-12T00:06:25.146Z,6.44
2023-04-12T00:07:25.123Z,6.45
2023-04-12T00:08:25.122Z,6.44
2023-04-12T00:09:25.099Z,6.42
2023-04-12T00:10:25.089Z,6.42
2023-04-12T00:11:25.069Z,6.42
2023-04-12T00:12:25.084Z,6.42
2023-04-12T00:13:25.061Z,6.42
2023-04-12T00:14:25.034Z,6.44
2023-04-12T00:15:25.052Z,6.42
2023-04-12T00:16:25.087Z,6.42
2023-04-12T00:17:25.009Z,6.44
2023-04-12T00:18:25.249Z,6.44
2023-04-12T00:19:24.974Z,6.42
2023-04-12T00:20:24.958Z,6.42
2023-04-12T00:21:24.974Z,6.44
2023-04-12T00:22:24.938Z,6.42
2023-04-12T00:23:24.923Z,6.44
2023-04-12T00:24:24.932Z,6.44
2023-04-12T00:25:24.899Z,6.45
2023-04-12T00:26:24.905Z,6.45
2023-04-12T00:27:24.879Z,6.44
2023-04-12T00:28:24.852Z,6.45
2023-04-12T00:29:24.849Z,6.41
2023-04-12T00:30:24.828Z,6.41
2023-04-12T00:31:24.870Z,6.39
2023-04-12T00:32:24.845Z,6.41
2023-04-12T00:33:24.788Z,6.39
2023-04-12T00:34:24.771Z,6.36
2023-04-12T00:35:24.759Z,6.38
2023-04-12T00:36:24.756Z,6.38
2023-04-12T00:37:24.735Z,6.38
2023-04-12T00:38:24.728Z,6.39
2023-04-12T00:39:24.704Z,6.39
2023-04-12T00:40:24.698Z,6.41
2023-04-12T00:41:24.691Z,6.39
2023-04-12T00:42:24.667Z,6.35
2023-04-12T00:43:24.656Z,6.33
2023-04-12T00:44:24.673Z,6.35
2023-04-12T00:45:24.644Z,6.35
2023-04-12T00:46:24.671Z,6.36
2023-04-12T00:47:24.664Z,6.35
2023-04-12T00:48:24.616Z,6.31
2023-04-12T00:49:24.577Z,6.33
2023-04-12T00:50:24.563Z,6.38
2023-04-12T00:51:24.559Z,6.38
2023-04-12T00:52:24.555Z,6.39
2023-04-12T00:53:24.533Z,6.38
2023-04-12T00:54:24.530Z,6.35
2023-04-12T00:55:24.506Z,6.36
2023-04-12T00:56:24.489Z,6.33
2023-04-12T00:57:24.472Z,6.33
2023-04-12T00:58:24.467Z,6.33
2023-04-12T00:59:24.446Z,6.35
2023-04-12T01:00:24.442Z,6.38
2023-04-12T01:01:24.456Z,6.36
2023-04-12T01:02:24.602Z,6.31
2023-04-12T01:03:24.602Z,6.31
2023-04-12T01:04:24.379Z,6.31
2023-04-12T01:05:24.409Z,6.31
2023-04-12T01:06:24.355Z,6.33
2023-04-12T01:07:24.339Z,6.33
2023-04-12T01:08:24.331Z,6.35
2023-04-12T01:09:24.316Z,6.33
2023-04-12T01:10:24.309Z,6.31
2023-04-12T01:11:24.291Z,6.31
2023-04-12T01:12:24.279Z,6.31
2023-04-12T01:13:24.261Z,6.30
2023-04-12T01:14:24.255Z,6.28
2023-04-12T01:15:24.247Z,6.28
2023-04-12T01:16:24.273Z,6.27
2023-04-12T01:17:24.287Z,6.27
2023-04-12T01:18:24.210Z,6.28
2023-04-12T01:19:24.215Z,6.27
2023-04-12T01:20:24.169Z,6.27
2023-04-12T01:21:24.174Z,6.27
2023-04-12T01:22:24.149Z,6.30
2023-04-12T01:23:24.127Z,6.31
2023-04-12T01:24:24.134Z,6.31
2023-04-12T01:25:24.224Z,6.30
2023-04-12T01:26:24.134Z,6.30
2023-04-12T01:27:24.079Z,6.28
2023-04-12T01:28:24.088Z,6.27
2023-04-12T01:29:24.064Z,6.26
2023-04-12T01:30:24.048Z,6.24
2023-04-12T01:31:24.065Z,6.24
2023-04-12T01:32:24.019Z,6.22
2023-04-12T01:33:24.001Z,6.22
2023-04-12T01:34:23.987Z,6.26
2023-04-12T01:35:24.034Z,6.26
2023-04-12T01:36:23.963Z,6.27
2023-04-12T01:37:23.952Z,6.24
2023-04-12T01:38:23.940Z,6.20
2023-04-12T01:39:23.917Z,6.20
2023-04-12T01:40:23.911Z,6.19
2023-04-12T01:41:23.897Z,6.20
2023-04-12T01:42:23.893Z,6.22
2023-04-12T01:43:23.872Z,6.24
2023-04-12T01:44:23.875Z,6.22
2023-04-12T01:45:23.876Z,6.20
2023-04-12T01:46:23.833Z,6.19
2023-04-12T01:47:23.817Z,6.22
2023-04-12T01:48:23.809Z,6.26
2023-04-12T01:49:23.793Z,6.22
2023-04-12T01:50:23.792Z,6.22
2023-04-12T01:51:23.808Z,6.22
2023-04-12T01:52:23.756Z,6.22
2023-04-12T01:53:23.745Z,6.22
2023-04-12T01:54:23.729Z,6.22
2023-04-12T01:55:23.703Z,6.22
2023-04-12T01:56:23.704Z,6.20
2023-04-12T01:57:23.700Z,6.22
2023-04-12T01:58:23.687Z,6.24
2023-04-12T01:59:23.656Z,6.27
2023-04-12T02:00:23.655Z,6.26
2023-04-12T02:01:23.668Z,6.22
2023-04-12T02:02:23.738Z,6.24
2023-04-12T02:03:23.809Z,6.20
2023-04-12T02:04:23.589Z,6.19
2023-04-12T02:05:23.587Z,6.17
2023-04-12T02:06:23.573Z,6.16
2023-04-12T02:07:23.588Z,6.16
2023-04-12T02:08:23.549Z,6.20
2023-04-12T02:09:23.530Z,6.19
2023-04-12T02:10:23.512Z,6.16
2023-04-12T02:11:23.499Z,6.16
2023-04-12T02:12:23.499Z,6.22
2023-04-12T02:13:23.470Z,6.24
2023-04-12T02:14:23.486Z,6.22
2023-04-12T02:15:23.451Z,6.26
2023-04-12T02:16:23.452Z,6.27
2023-04-12T02:17:23.420Z,6.26
2023-04-12T02:18:23.404Z,6.28
2023-04-12T02:19:23.404Z,6.30
2023-04-12T02:20:23.379Z,6.31
2023-04-12T02:21:23.359Z,6.30
2023-04-12T02:22:23.375Z,6.28
2023-04-12T02:23:23.367Z,6.27
2023-04-12T02:24:23.344Z,6.27
2023-04-12T02:25:23.343Z,6.28
2023-04-12T02:26:23.409Z,6.30
2023-04-12T02:27:23.292Z,6.31
2023-04-12T02:28:23.277Z,6.33
2023-04-12T02:29:23.270Z,6.33
2023-04-12T02:30:23.242Z,6.33
2023-04-12T02:31:23.398Z,6.35
2023-04-12T02:32:23.218Z,6.36
2023-04-12T02:33:23.207Z,6.36
2023-04-12T02:34:23.193Z,6.36
2023-04-12T02:35:23.203Z,6.36
2023-04-12T02:36:23.176Z,6.38
2023-04-12T02:37:23.163Z,6.39
2023-04-12T02:38:23.142Z,6.38
2023-04-12T02:39:23.157Z,6.33
2023-04-12T02:40:23.130Z,6.30
2023-04-12T02:41:23.107Z,6.26
2023-04-12T02:42:23.097Z,6.26
2023-04-12T02:43:23.077Z,6.26
2023-04-12T02:44:23.068Z,6.26
2023-04-12T02:45:23.049Z,6.20
2023-04-12T02:46:23.042Z,6.22
2023-04-12T02:47:23.082Z,6.22
2023-04-12T02:48:23.020Z,6.20
2023-04-12T02:49:22.994Z,6.22
2023-04-12T02:50:22.988Z,6.22
2023-04-12T02:51:22.975Z,6.24
2023-04-12T02:52:22.960Z,6.26
2023-04-12T02:53:22.942Z,6.27
2023-04-12T02:54:22.939Z,6.26
2023-04-12T02:55:22.963Z,6.26
2023-04-12T02:56:22.918Z,6.22
2023-04-12T02:57:22.895Z,6.22
2023-04-12T02:58:22.876Z,6.22
2023-04-12T02:59:22.873Z,6.24
2023-04-12T03:00:22.872Z,6.24
2023-04-12T03:01:22.893Z,6.20
2023-04-12T03:02:23.167Z,6.24
2023-04-12T03:03:23.173Z,6.24
2023-04-12T03:04:22.962Z,6.24
2023-04-12T03:05:22.784Z,6.20
2023-04-12T03:06:22.783Z,6.19
2023-04-12T03:07:22.769Z,6.19
2023-04-12T03:08:22.749Z,6.17
2023-04-12T03:09:22.758Z,6.16
2023-04-12T03:10:22.723Z,6.17
2023-04-12T03:11:22.740Z,6.16
2023-04-12T03:12:22.702Z,6.14
2023-04-12T03:13:22.682Z,6.12
2023-04-12T03:14:22.680Z,6.16
2023-04-12T03:15:22.652Z,6.16
2023-04-12T03:16:22.696Z,6.14
2023-04-12T03:17:22.690Z,6.16
2023-04-12T03:18:22.622Z,6.11
2023-04-12T03:19:22.610Z,6.12
2023-04-12T03:20:22.593Z,6.09
2023-04-12T03:21:22.572Z,6.09
2023-04-12T03:22:22.569Z,6.08
2023-04-12T03:23:22.559Z,6.07
2023-04-12T03:24:22.541Z,6.07
2023-04-12T03:25:22.520Z,6.09
2023-04-12T03:26:22.517Z,6.09
2023-04-12T03:27:22.523Z,6.05
2023-04-12T03:28:22.490Z,6.07
2023-04-12T03:29:22.481Z,6.05
2023-04-12T03:30:22.458Z,6.08
2023-04-12T03:31:22.469Z,6.07
2023-04-12T03:32:22.449Z,6.07
2023-04-12T03:33:22.421Z,6.07
2023-04-12T03:34:22.407Z,6.07
2023-04-12T03:35:22.414Z,6.07
2023-04-12T03:36:22.379Z,6.07
2023-04-12T03:37:22.371Z,6.07
2023-04-12T03:38:22.346Z,6.07
2023-04-12T03:39:22.353Z,6.08
2023-04-12T03:40:22.324Z,6.05
2023-04-12T03:41:22.305Z,6.02
2023-04-12T03:42:32.848Z,6.02
2023-04-12T03:43:23.350Z,6.04
2023-04-12T03:44:22.274Z,6.04
2023-04-12T03:45:22.260Z,6.07
2023-04-12T03:46:22.242Z,6.05
2023-04-12T03:47:22.260Z,6.05
2023-04-12T03:48:22.213Z,6.04
2023-04-12T03:49:22.207Z,6.05
2023-04-12T03:50:22.197Z,6.05
2023-04-12T03:51:22.273Z,6.05
2023-04-12T03:52:22.168Z,6.04
2023-04-12T03:53:22.149Z,6.02
2023-04-12T03:54:22.145Z,6.02
2023-04-12T03:55:22.133Z,6.02
2023-04-12T03:56:22.108Z,6.02
2023-04-12T03:57:22.106Z,5.99
2023-04-12T03:58:22.094Z,5.98
2023-04-12T03:59:22.102Z,5.99
2023-04-12T04:00:22.073Z,5.98
2023-04-12T04:01:22.047Z,5.99
2023-04-12T04:02:22.197Z,5.99
2023-04-12T04:03:22.094Z,5.99
2023-04-12T04:04:22.194Z,5.99
2023-04-12T04:05:22.002Z,6.01
2023-04-12T04:06:21.987Z,6.02
2023-04-12T04:07:21.972Z,6.01
2023-04-12T04:08:21.971Z,6.04
2023-04-12T04:09:21.964Z,6.05
2023-04-12T04:10:21.938Z,6.05
2023-04-12T04:11:21.915Z,6.08
2023-04-12T04:12:21.915Z,6.11
2023-04-12T04:13:21.899Z,6.14
2023-04-12T04:14:21.877Z,6.14
2023-04-12T04:15:21.891Z,6.09
2023-04-12T04:16:21.929Z,6.07
2023-04-12T04:17:21.898Z,6.05
2023-04-12T04:18:21.820Z,6.04
2023-04-12T04:19:21.809Z,6.01
2023-04-12T04:20:21.801Z,5.98
2023-04-12T04:21:21.782Z,5.99
2023-04-12T04:22:21.869Z,5.97
2023-04-12T04:23:21.765Z,5.97
2023-04-12T04:24:21.744Z,5.98
2023-04-12T04:25:21.759Z,5.99
2023-04-12T04:26:21.722Z,5.99
2023-04-12T04:27:21.713Z,6.01
2023-04-12T04:28:21.690Z,6.01
2023-04-12T04:29:21.677Z,6.05
2023-04-12T04:30:21.672Z,6.05
2023-04-12T04:31:21.687Z,6.01
2023-04-12T04:32:21.670Z,5.94
2023-04-12T04:33:21.628Z,5.91
2023-04-12T04:34:21.626Z,5.93
2023-04-12T04:35:21.726Z,5.93
2023-04-12T04:36:21.607Z,5.94
2023-04-12T04:37:21.580Z,5.94
2023-04-12T04:38:21.568Z,5.97
2023-04-12T04:39:21.587Z,5.94
2023-04-12T04:40:21.545Z,5.99
2023-04-12T04:41:21.537Z,5.98
2023-04-12T04:42:21.544Z,5.94
2023-04-12T04:43:21.505Z,5.94
2023-04-12T04:44:21.547Z,5.94
2023-04-12T04:45:21.606Z,5.94
2023-04-12T04:46:21.554Z,5.94
2023-04-12T04:47:21.579Z,5.94
2023-04-12T04:48:21.551Z,5.93
2023-04-12T04:49:21.481Z,5.91
2023-04-12T04:50:21.416Z,5.94
2023-04-12T04:51:21.511Z,5.97
2023-04-12T04:52:21.390Z,5.98
2023-04-12T04:53:21.374Z,5.99
2023-04-12T04:54:21.354Z,5.94
2023-04-12T04:55:21.378Z,5.94
2023-04-12T04:56:21.331Z,5.97
2023-04-12T04:57:21.329Z,6.01
2023-04-12T04:58:21.316Z,5.98
2023-04-12T04:59:21.308Z,5.97
2023-04-12T05:00:21.298Z,5.93
2023-04-12T05:01:21.301Z,5.93
2023-04-12T05:02:21.452Z,5.91
2023-04-12T05:03:21.356Z,5.93
2023-04-12T05:04:21.258Z,5.93
2023-04-12T05:05:21.219Z,5.91
2023-04-12T05:06:21.196Z,5.97
2023-04-12T05:07:21.179Z,5.93
2023-04-12T05:08:21.182Z,5.89
2023-04-12T05:09:21.162Z,5.90
2023-04-12T05:10:21.149Z,5.93
2023-04-12T05:11:21.125Z,5.97
2023-04-12T05:12:21.122Z,5.94
2023-04-12T05:13:21.099Z,5.91
2023-04-12T05:14:23.212Z,5.93
2023-04-12T05:15:21.077Z,5.91
2023-04-12T05:16:21.094Z,5.91
2023-04-12T05:17:21.131Z,5.93
2023-04-12T05:18:21.033Z,5.94
2023-04-12T05:19:21.099Z,5.93
2023-04-12T05:20:21.013Z,5.93
2023-04-12T05:21:22.148Z,5.93
2023-04-12T05:22:20.986Z,5.90
2023-04-12T05:23:20.975Z,5.91
2023-04-12T05:24:20.970Z,5.90
2023-04-12T05:25:20.983Z,5.90
2023-04-12T05:26:20.930Z,5.91
2023-04-12T05:27:20.931Z,5.91
2023-04-12T05:28:20.913Z,5.91
2023-04-12T05:29:20.895Z,5.91
2023-04-12T05:30:20.893Z,5.91
2023-04-12T05:31:21.094Z,5.94
2023-04-12T05:32:20.941Z,5.94
2023-04-12T05:33:20.847Z,5.94
2023-04-12T05:34:20.835Z,5.98
2023-04-12T05:35:20.867Z,5.98
2023-04-12T05:36:20.808Z,5.97
2023-04-12T05:37:20.787Z,5.99
2023-04-12T05:38:20.772Z,6.01
2023-04-12T05:39:20.919Z,5.99
2023-04-12T05:40:20.759Z,5.98
2023-04-12T05:41:20.764Z,5.99
2023-04-12T05:42:20.732Z,5.99
2023-04-12T05:43:20.716Z,5.99
2023-04-12T05:44:20.707Z,6.01
2023-04-12T05:45:20.683Z,5.99
2023-04-12T05:46:20.802Z,6.05
2023-04-12T05:47:20.670Z,6.08
2023-04-12T05:48:20.657Z,6.09
2023-04-12T05:49:20.636Z,6.14
2023-04-12T05:50:20.637Z,6.14
2023-04-12T05:51:30.665Z,6.14
2023-04-12T05:52:21.631Z,6.12
2023-04-12T05:53:20.591Z,6.11
2023-04-12T05:54:20.580Z,6.12
2023-04-12T05:55:20.561Z,6.14
2023-04-12T05:56:20.542Z,6.16
2023-04-12T05:57:20.545Z,6.17
2023-04-12T05:58:20.530Z,6.19
2023-04-12T05:59:20.512Z,6.20
2023-04-12T06:00:20.520Z,6.20
2023-04-12T06:01:20.476Z,6.20
2023-04-12T06:02:20.578Z,6.19
2023-04-12T06:03:20.648Z,6.20
2023-04-12T06:04:20.682Z,6.20
2023-04-12T06:05:20.458Z,6.24
2023-04-12T06:06:20.441Z,6.24
2023-04-12T06:07:20.441Z,6.26
2023-04-12T06:08:20.431Z,6.26
2023-04-12T06:09:20.385Z,6.31
2023-04-12T06:10:20.378Z,6.31
2023-04-12T06:11:20.371Z,6.28
2023-04-12T06:12:20.352Z,6.31
2023-04-12T06:13:20.331Z,6.30
2023-04-12T06:14:20.323Z,6.30
2023-04-12T06:15:20.309Z,6.27
2023-04-12T06:16:20.444Z,6.28
2023-04-12T06:17:20.295Z,6.30
2023-04-12T06:18:20.281Z,6.33
2023-04-12T06:19:20.258Z,6.35
2023-04-12T06:20:20.254Z,6.28
2023-04-12T06:21:20.242Z,6.30
2023-04-12T06:22:20.230Z,6.30
2023-04-12T06:23:20.248Z,6.30
2023-04-12T06:24:20.190Z,6.28
2023-04-12T06:25:20.175Z,6.30
2023-04-12T06:26:20.160Z,6.31
2023-04-12T06:27:20.145Z,6.27
2023-04-12T06:28:20.133Z,6.30
2023-04-12T06:29:20.137Z,6.33
2023-04-12T06:30:20.102Z,6.36
2023-04-12T06:31:20.144Z,6.38
2023-04-12T06:32:20.076Z,6.36
2023-04-12T06:33:20.071Z,6.35
2023-04-12T06:34:20.055Z,6.35
2023-04-12T06:35:20.061Z,6.36
2023-04-12T06:36:20.020Z,6.33
2023-04-12T06:37:20.018Z,6.38
2023-04-12T06:38:19.993Z,6.41
2023-04-12T06:39:20.038Z,6.41
2023-04-12T06:40:19.981Z,6.44
2023-04-12T06:41:19.953Z,6.49
2023-04-12T06:42:19.946Z,6.56
2023-04-12T06:43:19.938Z,6.57
2023-04-12T06:44:19.927Z,6.59
2023-04-12T06:45:20.065Z,6.62
2023-04-12T06:46:19.915Z,6.64
2023-04-12T06:47:19.886Z,6.69
2023-04-12T06:48:19.866Z,6.69
2023-04-12T06:49:19.855Z,6.70
2023-04-12T06:50:19.854Z,6.69
2023-04-12T06:51:19.838Z,6.70
2023-04-12T06:52:19.810Z,6.74
2023-04-12T06:53:19.806Z,6.77
2023-04-12T06:54:19.803Z,6.81
2023-04-12T06:55:19.861Z,6.85
2023-04-12T06:56:19.767Z,6.92
2023-04-12T06:57:19.746Z,6.95
2023-04-12T06:58:19.753Z,6.93
2023-04-12T06:59:19.883Z,6.97
2023-04-12T07:00:19.710Z,7.00
2023-04-12T07:01:19.802Z,7.05
2023-04-12T07:02:19.800Z,7.00
2023-04-12T07:03:19.810Z,7.00
2023-04-12T07:04:19.772Z,7.05
2023-04-12T07:05:19.650Z,7.07
2023-04-12T07:06:25.131Z,7.06
2023-04-12T07:07:20.673Z,7.11
2023-04-12T07:08:19.603Z,7.15
2023-04-12T07:09:19.591Z,7.14
2023-04-12T07:10:19.580Z,7.11
2023-04-12T07:11:21.830Z,7.05
2023-04-12T07:12:19.560Z,7.00
2023-04-12T07:13:20.152Z,7.00
2023-04-12T07:14:19.530Z,7.02
2023-04-12T07:15:19.520Z,6.93
2023-04-12T07:16:19.569Z,6.92
2023-04-12T07:17:19.497Z,6.92
2023-04-12T07:18:19.484Z,6.92
2023-04-12T07:19:19.461Z,6.89
2023-04-12T07:20:19.452Z,6.87
2023-04-12T07:21:19.445Z,6.87
2023-04-12T07:22:19.441Z,6.88
2023-04-12T07:23:19.429Z,6.88
2023-04-12T07:24:19.426Z,6.87
2023-04-12T07:25:19.409Z,6.89
2023-04-12T07:26:19.384Z,6.89
2023-04-12T07:27:19.396Z,6.92
2023-04-12T07:28:19.353Z,6.89
2023-04-12T07:29:19.332Z,6.88
2023-04-12T07:30:19.319Z,6.87
2023-04-12T07:31:19.314Z,6.87
2023-04-12T07:32:19.308Z,6.97
2023-04-12T07:33:20.167Z,6.99
2023-04-12T07:34:19.386Z,7.02
2023-04-12T07:35:19.268Z,6.99
2023-04-12T07:36:19.278Z,7.02
2023-04-12T07:37:19.235Z,7.05
2023-04-12T07:38:19.226Z,7.11
2023-04-12T07:39:19.250Z,7.15
2023-04-12T07:40:19.193Z,7.24
2023-04-12T07:41:19.182Z,7.32
2023-04-12T07:42:19.175Z,7.40
2023-04-12T07:43:19.197Z,7.50
2023-04-12T07:44:19.145Z,7.56
2023-04-12T07:45:19.127Z,7.57
2023-04-12T07:46:19.191Z,7.56
2023-04-12T07:47:19.114Z,7.66
2023-04-12T07:48:19.090Z,7.69
2023-04-12T07:49:19.097Z,7.60
2023-04-12T07:50:19.068Z,7.57
2023-04-12T07:51:19.060Z,7.57
2023-04-12T07:52:19.042Z,7.60
2023-04-12T07:53:19.031Z,7.63
2023-04-12T07:54:19.017Z,7.69
2023-04-12T07:55:18.999Z,7.79
2023-04-12T07:56:18.996Z,7.90
2023-04-12T07:57:18.977Z,8.09
2023-04-12T07:58:18.994Z,8.33
2023-04-12T07:59:19.015Z,8.60
2023-04-12T08:00:18.939Z,8.89
2023-04-12T08:01:18.920Z,9.11
2023-04-12T08:02:19.001Z,9.37
2023-04-12T08:03:19.075Z,9.47
2023-04-12T08:04:19.006Z,9.73
2023-04-12T08:05:18.912Z,9.84
2023-04-12T08:06:18.884Z,10.01
2023-04-12T08:07:18.857Z,9.99
2023-04-12T08:08:18.834Z,9.83
2023-04-12T08:09:18.821Z,9.91
2023-04-12T08:10:18.802Z,9.82
2023-04-12T08:11:18.783Z,9.89
2023-04-12T08:12:18.791Z,9.86
2023-04-12T08:13:18.781Z,9.83
2023-04-12T08:14:18.762Z,9.87
2023-04-12T08:15:18.783Z,9.98
2023-04-12T08:16:18.877Z,10.02
2023-04-12T08:17:18.718Z,9.99
2023-04-12T08:18:18.721Z,10.01
2023-04-12T08:19:18.701Z,9.89
2023-04-12T08:20:18.671Z,9.64
2023-04-12T08:21:18.652Z,9.56
2023-04-12T08:22:18.660Z,9.43
2023-04-12T08:23:18.648Z,9.44
2023-04-12T08:24:18.682Z,9.36
2023-04-12T08:25:18.617Z,9.40
2023-04-12T08:26:18.592Z,9.62
2023-04-12T08:27:18.604Z,9.62
2023-04-12T08:28:18.593Z,9.76
2023-04-12T08:29:18.557Z,9.74
2023-04-12T08:30:18.582Z,9.69
2023-04-12T08:31:18.645Z,9.97
2023-04-12T08:32:18.553Z,10.33
2023-04-12T08:33:18.508Z,10.30
2023-04-12T08:34:18.486Z,10.15
2023-04-12T08:35:18.489Z,10.01
2023-04-12T08:36:18.497Z,9.91
2023-04-12T08:37:18.472Z,10.09
2023-04-12T08:38:18.439Z,10.38
2023-04-12T08:39:18.430Z,10.26
2023-04-12T08:40:18.436Z,10.19
2023-04-12T08:41:18.415Z,10.33
2023-04-12T08:42:18.381Z,10.57
2023-04-12T08:43:18.365Z,10.81
2023-04-12T08:44:18.368Z,10.90
2023-04-12T08:45:18.340Z,10.90
2023-04-12T08:46:18.379Z,10.99
2023-04-12T08:47:18.462Z,11.18
2023-04-12T08:48:18.311Z,11.33
2023-04-12T08:49:18.287Z,11.02
2023-04-12T08:50:18.287Z,10.57
2023-04-12T08:51:18.262Z,10.31
2023-04-12T08:52:18.274Z,10.30
2023-04-12T08:53:18.246Z,10.31
2023-04-12T08:54:18.223Z,10.46
2023-04-12T08:55:18.217Z,10.69
2023-04-12T08:56:18.206Z,10.74
2023-04-12T08:57:18.213Z,10.78
2023-04-12T08:58:18.186Z,10.82
2023-04-12T08:59:18.160Z,10.68
2023-04-12T09:00:18.148Z,10.63
2023-04-12T09:01:18.145Z,10.54
2023-04-12T09:02:18.205Z,10.69
2023-04-12T09:03:18.385Z,10.84
2023-04-12T09:04:18.335Z,10.87
2023-04-12T09:05:18.129Z,10.94
2023-04-12T09:06:18.076Z,11.02
2023-04-12T09:07:18.069Z,11.00
2023-04-12T09:08:18.052Z,10.97
2023-04-12T09:09:18.034Z,10.97
2023-04-12T09:10:18.021Z,10.96
2023-04-12T09:11:17.996Z,10.84
2023-04-12T09:12:17.988Z,10.78
2023-04-12T09:13:18.016Z,10.75
2023-04-12T09:14:17.973Z,10.60
2023-04-12T09:15:17.984Z,10.51
2023-04-12T09:16:18.025Z,10.59
2023-04-12T09:17:17.925Z,10.63
2023-04-12T09:18:17.964Z,10.63
2023-04-12T09:19:17.932Z,10.63
2023-04-12T09:20:18.060Z,10.72
2023-04-12T09:21:17.871Z,10.72
2023-04-12T09:22:17.863Z,10.71
2023-04-12T09:23:17.841Z,10.69
2023-04-12T09:24:17.844Z,10.78
2023-04-12T09:25:17.843Z,10.82
2023-04-12T09:26:17.810Z,10.71
2023-04-12T09:27:17.793Z,10.72
2023-04-12T09:28:17.774Z,10.81
2023-04-12T09:29:17.773Z,10.76
2023-04-12T09:30:17.836Z,10.81
2023-04-12T09:31:17.821Z,10.86
2023-04-12T09:32:17.775Z,10.86
2023-04-12T09:33:17.711Z,10.84
2023-04-12T09:34:17.707Z,10.84
2023-04-12T09:35:17.906Z,10.89
2023-04-12T09:36:17.749Z,10.96
2023-04-12T09:37:17.656Z,11.08
2023-04-12T09:38:17.646Z,11.08
2023-04-12T09:39:17.633Z,11.14
2023-04-12T09:40:17.746Z,11.25
2023-04-12T09:41:20.246Z,11.30
2023-04-12T09:42:32.510Z,11.29
2023-04-12T09:43:18.651Z,11.50
2023-04-12T09:44:17.593Z,11.48
2023-04-12T09:45:17.564Z,11.19
2023-04-12T09:46:17.617Z,11.22
2023-04-12T09:47:17.555Z,11.19
2023-04-12T09:48:17.515Z,11.11
2023-04-12T09:49:17.513Z,11.05
2023-04-12T09:50:17.526Z,11.04
2023-04-12T09:51:17.523Z,11.00
2023-04-12T09:52:17.499Z,10.96
2023-04-12T09:53:17.478Z,10.94
2023-04-12T09:54:17.463Z,10.86
2023-04-12T09:55:17.456Z,10.87
2023-04-12T09:56:17.422Z,10.82
2023-04-12T09:57:17.410Z,10.69
2023-04-12T09:58:17.405Z,10.61
2023-04-12T09:59:17.379Z,10.57
2023-04-12T10:00:17.954Z,10.53
2023-04-12T10:01:17.773Z,10.54
2023-04-12T10:02:17.540Z,10.56
2023-04-12T10:03:17.464Z,10.63
2023-04-12T10:04:17.456Z,10.67
2023-04-12T10:05:17.583Z,10.75
2023-04-12T10:06:17.297Z,10.78
2023-04-12T10:07:17.321Z,10.82
2023-04-12T10:08:17.280Z,10.86
2023-04-12T10:09:17.248Z,10.99
2023-04-12T10:10:17.565Z,11.18
2023-04-12T10:11:17.218Z,11.36
2023-04-12T10:12:17.232Z,11.45
2023-04-12T10:13:17.203Z,11.55
2023-04-12T10:14:17.702Z,11.50
2023-04-12T10:15:17.638Z,11.44
2023-04-12T10:16:17.247Z,11.43
2023-04-12T10:17:17.145Z,11.40
2023-04-12T10:18:17.220Z,11.30
2023-04-12T10:19:17.117Z,11.30
2023-04-12T10:20:17.255Z,11.25
2023-04-12T10:21:17.093Z,11.25
2023-04-12T10:22:17.104Z,11.23
2023-04-12T10:23:17.122Z,11.27
2023-04-12T10:24:17.041Z,11.26
2023-04-12T10:25:17.075Z,11.29
2023-04-12T10:26:17.051Z,11.29
2023-04-12T10:27:17.012Z,11.33
2023-04-12T10:28:17.029Z,11.30
2023-04-12T10:29:16.987Z,11.27
2023-04-12T10:30:16.976Z,11.30
2023-04-12T10:31:17.062Z,11.35
2023-04-12T10:32:16.966Z,11.37
2023-04-12T10:33:17.174Z,11.40
2023-04-12T10:34:16.951Z,11.37
2023-04-12T10:35:16.933Z,11.44
2023-04-12T10:36:16.963Z,11.45
2023-04-12T10:37:16.880Z,11.51
2023-04-12T10:38:16.906Z,11.52
2023-04-12T10:39:16.917Z,11.50
2023-04-12T10:40:16.847Z,11.51
2023-04-12T10:41:16.869Z,11.50
2023-04-12T10:42:16.843Z,11.51
2023-04-12T10:43:16.820Z,11.51
2023-04-12T10:44:16.817Z,11.50
2023-04-12T10:45:16.829Z,11.40
2023-04-12T10:46:16.795Z,11.35
2023-04-12T10:47:16.803Z,11.33
2023-04-12T10:48:16.793Z,11.26
2023-04-12T10:49:16.728Z,11.17
2023-04-12T10:50:16.728Z,11.11
2023-04-12T10:51:16.707Z,11.10
2023-04-12T10:52:16.703Z,11.07
2023-04-12T10:53:16.703Z,11.08
2023-04-12T10:54:16.673Z,11.11
2023-04-12T10:55:16.745Z,11.08
2023-04-12T10:56:16.674Z,11.15
2023-04-12T10:57:16.638Z,11.18
2023-04-12T10:58:16.611Z,11.23
2023-04-12T10:59:16.768Z,11.30
2023-04-12T11:00:16.845Z,11.41
2023-04-12T11:01:16.739Z,11.50
2023-04-12T11:02:16.733Z,11.51
2023-04-12T11:03:16.633Z,11.59
2023-04-12T11:04:16.941Z,11.62
2023-04-12T11:05:16.562Z,11.63
2023-04-12T11:06:27.273Z,11.77
2023-04-12T11:07:17.533Z,11.80
2023-04-12T11:08:16.505Z,11.70
2023-04-12T11:09:16.475Z,11.78
2023-04-12T11:10:16.460Z,11.81
2023-04-12T11:11:16.474Z,11.86
2023-04-12T11:12:16.431Z,11.90
2023-04-12T11:13:16.438Z,11.88
2023-04-12T11:14:16.415Z,11.97
2023-04-12T11:15:16.381Z,11.99
2023-04-12T11:16:16.426Z,12.03
2023-04-12T11:17:16.442Z,12.06
2023-04-12T11:18:16.384Z,12.12
2023-04-12T11:19:16.362Z,12.12
2023-04-12T11:20:16.339Z,12.18
2023-04-12T11:21:16.342Z,12.20
2023-04-12T11:22:16.301Z,12.21
2023-04-12T11:23:16.304Z,12.06
2023-04-12T11:24:16.294Z,12.00
2023-04-12T11:25:16.291Z,11.94
2023-04-12T11:26:16.263Z,11.78
2023-04-12T11:27:16.425Z,11.66
2023-04-12T11:28:27.840Z,11.62
2023-04-12T11:29:17.246Z,11.65
2023-04-12T11:30:16.200Z,11.66
2023-04-12T11:31:16.206Z,11.70
2023-04-12T11:32:16.240Z,11.80
2023-04-12T11:33:16.164Z,11.88
2023-04-12T11:34:16.241Z,11.95
2023-04-12T11:35:16.152Z,11.84
2023-04-12T11:36:16.112Z,11.75
2023-04-12T11:37:16.132Z,11.72
2023-04-12T11:38:16.095Z,11.69
2023-04-12T11:39:16.081Z,11.66
2023-04-12T11:40:16.081Z,11.57
2023-04-12T11:41:16.076Z,11.57
2023-04-12T11:42:16.078Z,11.57
2023-04-12T11:43:16.059Z,11.59
2023-04-12T11:44:16.006Z,11.65
2023-04-12T11:45:18.258Z,11.66
2023-04-12T11:46:16.043Z,11.66
2023-04-12T11:47:15.978Z,11.70
2023-04-12T11:48:15.989Z,11.77
2023-04-12T11:49:15.962Z,11.83
2023-04-12T11:50:15.937Z,11.97
2023-04-12T11:51:15.936Z,12.10
2023-04-12T11:52:15.905Z,12.20
2023-04-12T11:53:15.908Z,12.17
2023-04-12T11:54:15.885Z,12.20
2023-04-12T11:55:15.872Z,12.28
2023-04-12T11:56:15.857Z,12.35
2023-04-12T11:57:15.836Z,12.29
2023-04-12T11:58:15.830Z,12.22
2023-04-12T11:59:15.842Z,12.21
2023-04-12T12:00:15.796Z,12.20
2023-04-12T12:01:15.789Z,12.17
2023-04-12T12:02:22.733Z,12.13
2023-04-12T12:03:16.978Z,12.10
2023-04-12T12:04:15.860Z,12.10
2023-04-12T12:05:15.804Z,12.12
2023-04-12T12:06:15.873Z,12.21
2023-04-12T12:07:16.097Z,12.27
2023-04-12T12:08:15.704Z,12.28
2023-04-12T12:09:15.698Z,12.29
2023-04-12T12:10:27.524Z,12.35
2023-04-12T12:11:16.678Z,12.45
2023-04-12T12:12:15.657Z,12.49
2023-04-12T12:13:15.632Z,12.47
2023-04-12T12:14:15.629Z,12.54
2023-04-12T12:15:15.629Z,12.61
2023-04-12T12:16:15.697Z,12.61
2023-04-12T12:17:15.577Z,12.61
2023-04-12T12:18:15.563Z,12.57
2023-04-12T12:19:15.564Z,12.54
2023-04-12T12:20:15.542Z,12.55
2023-04-12T12:21:15.524Z,12.53
2023-04-12T12:22:15.515Z,12.55
2023-04-12T12:23:15.496Z,12.55
2023-04-12T12:24:15.485Z,12.58
2023-04-12T12:25:15.488Z,12.53
2023-04-12T12:26:18.978Z,12.58
2023-04-12T12:27:15.457Z,12.65
2023-04-12T12:28:15.464Z,12.76
2023-04-12T12:29:15.423Z,12.82
2023-04-12T12:30:15.403Z,12.91
2023-04-12T12:31:15.438Z,12.91
2023-04-12T12:32:15.381Z,12.93
2023-04-12T12:33:15.374Z,12.94
2023-04-12T12:34:15.360Z,12.85
2023-04-12T12:35:15.345Z,12.78
2023-04-12T12:36:15.386Z,12.73
2023-04-12T12:37:15.317Z,12.70
2023-04-12T12:38:15.314Z,12.61
2023-04-12T12:39:15.339Z,12.64
2023-04-12T12:40:15.285Z,12.68
2023-04-12T12:41:15.269Z,12.64
2023-04-12T12:42:15.263Z,12.75
2023-04-12T12:43:15.255Z,12.90
2023-04-12T12:44:15.261Z,13.04
2023-04-12T12:45:15.219Z,13.16
2023-04-12T12:46:15.224Z,13.27
2023-04-12T12:47:15.267Z,13.42
2023-04-12T12:48:15.302Z,13.53
2023-04-12T12:49:15.186Z,13.67
2023-04-12T12:50:15.169Z,13.74
2023-04-12T12:51:15.135Z,13.81
2023-04-12T12:52:17.676Z,13.79
2023-04-12T12:53:15.118Z,13.78
2023-04-12T12:54:21.993Z,13.78
2023-04-12T12:55:16.129Z,13.74
2023-04-12T12:56:15.083Z,13.77
2023-04-12T12:57:15.061Z,13.75
2023-04-12T12:58:15.042Z,13.63
2023-04-12T12:59:15.049Z,13.60
2023-04-12T13:00:15.028Z,13.56
2023-04-12T13:01:15.007Z,13.38
2023-04-12T13:02:15.032Z,13.33
2023-04-12T13:03:15.240Z,13.19
2023-04-12T13:04:15.018Z,13.05
2023-04-12T13:05:14.981Z,12.98
2023-04-12T13:06:14.936Z,12.93
2023-04-12T13:07:14.932Z,12.93
2023-04-12T13:08:14.919Z,12.93
2023-04-12T13:09:14.902Z,12.87